sensor_id;sensor_type;location;lat;lon;timestamp;P1;durP1;ratioP1;P2;durP2;ratioP2
21621;SDS011;10973;46.706;12.340;2023-06-05T00:00:01;3.00;;;2.83;;
21621;SDS011;10973;46.706;12.340;2023-06-05T00:02:29;3.13;;;2.63;;
21621;SDS011;10973;46.706;12.340;2023-06-05T00:04:57;3.00;;;2.80;;
21621;SDS011;10973;46.706;12.340;2023-06-05T00:07:24;2.90;;;2.80;;
21621;SDS011;10973;46.706;12.340;2023-06-05T00:09:51;3.07;;;2.87;;
21621;SDS011;10973;46.706;12.340;2023-06-05T00:12:22;3.00;;;2.80;;
21621;SDS011;10973;46.706;12.340;2023-06-05T00:14:49;2.97;;;2.80;;
21621;SDS011;10973;46.706;12.340;2023-06-05T00:17:16;2.60;;;2.50;;
21621;SDS011;10973;46.706;12.340;2023-06-05T00:19:44;2.80;;;2.60;;
21621;SDS011;10973;46.706;12.340;2023-06-05T00:22:11;3.57;;;2.67;;
21621;SDS011;10973;46.706;12.340;2023-06-05T00:24:38;2.07;;;1.87;;
21621;SDS011;10973;46.706;12.340;2023-06-05T00:27:06;2.40;;;2.30;;
21621;SDS011;10973;46.706;12.340;2023-06-05T00:29:33;3.03;;;2.83;;
21621;SDS011;10973;46.706;12.340;2023-06-05T00:32:00;3.33;;;3.13;;
21621;SDS011;10973;46.706;12.340;2023-06-05T00:34:28;3.40;;;3.20;;
21621;SDS011;10973;46.706;12.340;2023-06-05T00:36:55;3.33;;;3.13;;
21621;SDS011;10973;46.706;12.340;2023-06-05T00:39:23;2.70;;;2.60;;
21621;SDS011;10973;46.706;12.340;2023-06-05T00:41:50;2.60;;;2.40;;
21621;SDS011;10973;46.706;12.340;2023-06-05T00:44:18;2.40;;;2.20;;
21621;SDS011;10973;46.706;12.340;2023-06-05T00:46:45;2.40;;;2.27;;
21621;SDS011;10973;46.706;12.340;2023-06-05T00:49:17;2.67;;;2.57;;
21621;SDS011;10973;46.706;12.340;2023-06-05T00:51:46;2.73;;;2.53;;
21621;SDS011;10973;46.706;12.340;2023-06-05T00:54:14;2.60;;;2.50;;
21621;SDS011;10973;46.706;12.340;2023-06-05T00:56:42;2.73;;;2.63;;
21621;SDS011;10973;46.706;12.340;2023-06-05T00:59:10;2.30;;;2.20;;
21621;SDS011;10973;46.706;12.340;2023-06-05T01:01:38;3.10;;;2.50;;
21621;SDS011;10973;46.706;12.340;2023-06-05T01:04:06;2.70;;;2.50;;
21621;SDS011;10973;46.706;12.340;2023-06-05T01:06:34;2.20;;;2.00;;
21621;SDS011;10973;46.706;12.340;2023-06-05T01:09:03;2.43;;;2.23;;
21621;SDS011;10973;46.706;12.340;2023-06-05T01:11:38;2.00;;;1.90;;
21621;SDS011;10973;46.706;12.340;2023-06-05T01:14:27;2.37;;;2.20;;
21621;SDS011;10973;46.706;12.340;2023-06-05T01:16:57;2.40;;;2.30;;
21621;SDS011;10973;46.706;12.340;2023-06-05T01:19:28;2.50;;;2.40;;
21621;SDS011;10973;46.706;12.340;2023-06-05T01:22:07;2.80;;;2.60;;
21621;SDS011;10973;46.706;12.340;2023-06-05T01:24:36;2.80;;;2.70;;
21621;SDS011;10973;46.706;12.340;2023-06-05T01:27:14;3.27;;;3.07;;
21621;SDS011;10973;46.706;12.340;2023-06-05T01:33:05;2.43;;;2.10;;
21621;SDS011;10973;46.706;12.340;2023-06-05T01:35:27;2.37;;;2.27;;
21621;SDS011;10973;46.706;12.340;2023-06-05T01:37:59;2.53;;;2.30;;
21621;SDS011;10973;46.706;12.340;2023-06-05T01:40:30;2.37;;;2.20;;
21621;SDS011;10973;46.706;12.340;2023-06-05T01:42:59;2.40;;;2.30;;
21621;SDS011;10973;46.706;12.340;2023-06-05T01:45:29;3.73;;;2.40;;
21621;SDS011;10973;46.706;12.340;2023-06-05T01:47:57;2.43;;;2.33;;
21621;SDS011;10973;46.706;12.340;2023-06-05T01:50:25;3.60;;;2.40;;
21621;SDS011;10973;46.706;12.340;2023-06-05T01:52:52;2.50;;;2.40;;
21621;SDS011;10973;46.706;12.340;2023-06-05T01:55:20;2.17;;;2.07;;
21621;SDS011;10973;46.706;12.340;2023-06-05T01:57:49;2.60;;;2.30;;
21621;SDS011;10973;46.706;12.340;2023-06-05T02:00:17;2.67;;;2.47;;
21621;SDS011;10973;46.706;12.340;2023-06-05T02:02:46;5.17;;;2.53;;
21621;SDS011;10973;46.706;12.340;2023-06-05T02:05:17;2.10;;;2.00;;
21621;SDS011;10973;46.706;12.340;2023-06-05T02:07:54;2.20;;;2.10;;
21621;SDS011;10973;46.706;12.340;2023-06-05T02:10:24;2.57;;;2.33;;
21621;SDS011;10973;46.706;12.340;2023-06-05T02:12:51;2.10;;;2.00;;
21621;SDS011;10973;46.706;12.340;2023-06-05T02:15:19;3.27;;;2.47;;
21621;SDS011;10973;46.706;12.340;2023-06-05T02:17:46;2.90;;;2.80;;
21621;SDS011;10973;46.706;12.340;2023-06-05T02:20:14;3.20;;;3.00;;
21621;SDS011;10973;46.706;12.340;2023-06-05T02:22:42;3.13;;;2.93;;
21621;SDS011;10973;46.706;12.340;2023-06-05T02:25:10;3.07;;;2.87;;
21621;SDS011;10973;46.706;12.340;2023-06-05T02:27:38;3.30;;;3.10;;
21621;SDS011;10973;46.706;12.340;2023-06-05T02:30:05;3.50;;;3.30;;
21621;SDS011;10973;46.706;12.340;2023-06-05T02:32:34;3.53;;;3.33;;
21621;SDS011;10973;46.706;12.340;2023-06-05T02:35:02;3.87;;;3.67;;
21621;SDS011;10973;46.706;12.340;2023-06-05T02:37:30;3.60;;;3.30;;
21621;SDS011;10973;46.706;12.340;2023-06-05T02:39:58;3.80;;;3.60;;
21621;SDS011;10973;46.706;12.340;2023-06-05T02:42:25;3.70;;;3.50;;
21621;SDS011;10973;46.706;12.340;2023-06-05T02:44:52;3.57;;;3.37;;
21621;SDS011;10973;46.706;12.340;2023-06-05T02:47:19;3.97;;;3.60;;
21621;SDS011;10973;46.706;12.340;2023-06-05T02:49:47;4.87;;;3.40;;
21621;SDS011;10973;46.706;12.340;2023-06-05T02:52:14;2.60;;;2.50;;
21621;SDS011;10973;46.706;12.340;2023-06-05T02:54:41;3.77;;;2.60;;
21621;SDS011;10973;46.706;12.340;2023-06-05T02:57:09;3.07;;;2.87;;
21621;SDS011;10973;46.706;12.340;2023-06-05T02:59:36;2.90;;;2.40;;
21621;SDS011;10973;46.706;12.340;2023-06-05T03:02:04;2.60;;;2.50;;
21621;SDS011;10973;46.706;12.340;2023-06-05T03:04:32;2.70;;;2.60;;
21621;SDS011;10973;46.706;12.340;2023-06-05T03:07:00;2.43;;;2.33;;
21621;SDS011;10973;46.706;12.340;2023-06-05T03:09:28;2.77;;;2.60;;
21621;SDS011;10973;46.706;12.340;2023-06-05T03:11:56;3.40;;;3.10;;
21621;SDS011;10973;46.706;12.340;2023-06-05T03:14:25;2.50;;;2.40;;
21621;SDS011;10973;46.706;12.340;2023-06-05T03:16:53;2.77;;;2.57;;
21621;SDS011;10973;46.706;12.340;2023-06-05T03:19:20;3.03;;;2.83;;
21621;SDS011;10973;46.706;12.340;2023-06-05T03:21:47;2.90;;;2.80;;
21621;SDS011;10973;46.706;12.340;2023-06-05T03:24:15;3.63;;;3.20;;
21621;SDS011;10973;46.706;12.340;2023-06-05T03:26:43;2.93;;;2.73;;
21621;SDS011;10973;46.706;12.340;2023-06-05T03:29:11;3.00;;;2.90;;
21621;SDS011;10973;46.706;12.340;2023-06-05T03:31:38;3.63;;;2.90;;
21621;SDS011;10973;46.706;12.340;2023-06-05T03:34:05;2.97;;;2.77;;
21621;SDS011;10973;46.706;12.340;2023-06-05T03:36:33;2.80;;;2.60;;
21621;SDS011;10973;46.706;12.340;2023-06-05T03:39:00;2.90;;;2.70;;
21621;SDS011;10973;46.706;12.340;2023-06-05T03:41:29;2.83;;;2.73;;
21621;SDS011;10973;46.706;12.340;2023-06-05T03:43:56;3.10;;;2.90;;
21621;SDS011;10973;46.706;12.340;2023-06-05T03:46:24;3.40;;;3.20;;
21621;SDS011;10973;46.706;12.340;2023-06-05T03:48:53;3.60;;;3.30;;
21621;SDS011;10973;46.706;12.340;2023-06-05T03:51:21;3.30;;;3.10;;
21621;SDS011;10973;46.706;12.340;2023-06-05T03:53:48;3.97;;;3.60;;
21621;SDS011;10973;46.706;12.340;2023-06-05T03:56:15;3.27;;;2.93;;
21621;SDS011;10973;46.706;12.340;2023-06-05T03:58:43;3.03;;;2.83;;
21621;SDS011;10973;46.706;12.340;2023-06-05T04:01:11;3.23;;;3.00;;
21621;SDS011;10973;46.706;12.340;2023-06-05T04:03:38;3.17;;;2.87;;
21621;SDS011;10973;46.706;12.340;2023-06-05T04:06:06;2.90;;;2.60;;
21621;SDS011;10973;46.706;12.340;2023-06-05T04:08:34;3.00;;;2.80;;
21621;SDS011;10973;46.706;12.340;2023-06-05T04:11:01;4.10;;;3.30;;
21621;SDS011;10973;46.706;12.340;2023-06-05T04:13:30;3.87;;;2.90;;
21621;SDS011;10973;46.706;12.340;2023-06-05T04:15:57;3.07;;;2.87;;
21621;SDS011;10973;46.706;12.340;2023-06-05T04:18:24;2.80;;;2.60;;
21621;SDS011;10973;46.706;12.340;2023-06-05T04:20:52;3.00;;;2.80;;
21621;SDS011;10973;46.706;12.340;2023-06-05T04:23:20;3.43;;;3.20;;
21621;SDS011;10973;46.706;12.340;2023-06-05T04:25:47;3.60;;;3.40;;
21621;SDS011;10973;46.706;12.340;2023-06-05T04:28:15;3.83;;;3.63;;
21621;SDS011;10973;46.706;12.340;2023-06-05T04:30:42;3.50;;;3.30;;
21621;SDS011;10973;46.706;12.340;2023-06-05T04:33:10;3.57;;;3.30;;
21621;SDS011;10973;46.706;12.340;2023-06-05T04:35:37;3.20;;;3.00;;
21621;SDS011;10973;46.706;12.340;2023-06-05T04:38:05;2.90;;;2.70;;
21621;SDS011;10973;46.706;12.340;2023-06-05T04:40:33;2.93;;;2.73;;
21621;SDS011;10973;46.706;12.340;2023-06-05T04:43:01;3.20;;;3.00;;
21621;SDS011;10973;46.706;12.340;2023-06-05T04:45:28;2.83;;;2.70;;
21621;SDS011;10973;46.706;12.340;2023-06-05T04:47:56;2.70;;;2.60;;
21621;SDS011;10973;46.706;12.340;2023-06-05T04:50:25;3.00;;;2.63;;
21621;SDS011;10973;46.706;12.340;2023-06-05T04:52:54;3.27;;;3.07;;
21621;SDS011;10973;46.706;12.340;2023-06-05T04:55:21;3.27;;;2.97;;
21621;SDS011;10973;46.706;12.340;2023-06-05T04:57:49;3.43;;;3.23;;
21621;SDS011;10973;46.706;12.340;2023-06-05T05:00:17;3.50;;;3.30;;
21621;SDS011;10973;46.706;12.340;2023-06-05T05:02:44;3.37;;;3.17;;
21621;SDS011;10973;46.706;12.340;2023-06-05T05:05:12;3.90;;;3.60;;
21621;SDS011;10973;46.706;12.340;2023-06-05T05:07:40;3.50;;;3.20;;
21621;SDS011;10973;46.706;12.340;2023-06-05T05:10:08;3.57;;;3.37;;
21621;SDS011;10973;46.706;12.340;2023-06-05T05:12:37;3.40;;;3.20;;
21621;SDS011;10973;46.706;12.340;2023-06-05T05:15:05;3.93;;;3.17;;
21621;SDS011;10973;46.706;12.340;2023-06-05T05:17:33;3.63;;;3.43;;
21621;SDS011;10973;46.706;12.340;2023-06-05T05:20:00;3.40;;;3.10;;
21621;SDS011;10973;46.706;12.340;2023-06-05T05:22:28;3.30;;;3.10;;
21621;SDS011;10973;46.706;12.340;2023-06-05T05:24:55;3.50;;;3.30;;
21621;SDS011;10973;46.706;12.340;2023-06-05T05:27:23;4.13;;;3.83;;
21621;SDS011;10973;46.706;12.340;2023-06-05T05:29:50;3.70;;;3.50;;
21621;SDS011;10973;46.706;12.340;2023-06-05T05:32:20;3.97;;;3.77;;
21621;SDS011;10973;46.706;12.340;2023-06-05T05:34:49;4.03;;;3.73;;
21621;SDS011;10973;46.706;12.340;2023-06-05T05:37:17;4.17;;;3.77;;
21621;SDS011;10973;46.706;12.340;2023-06-05T05:39:44;5.97;;;5.37;;
21621;SDS011;10973;46.706;12.340;2023-06-05T05:42:12;6.20;;;4.20;;
21621;SDS011;10973;46.706;12.340;2023-06-05T05:44:39;5.43;;;4.97;;
21621;SDS011;10973;46.706;12.340;2023-06-05T05:47:06;4.90;;;4.50;;
21621;SDS011;10973;46.706;12.340;2023-06-05T05:49:35;4.97;;;4.53;;
21621;SDS011;10973;46.706;12.340;2023-06-05T05:52:02;5.60;;;5.10;;
21621;SDS011;10973;46.706;12.340;2023-06-05T05:54:30;4.67;;;4.33;;
21621;SDS011;10973;46.706;12.340;2023-06-05T05:56:57;4.70;;;4.40;;
21621;SDS011;10973;46.706;12.340;2023-06-05T05:59:25;6.00;;;4.93;;
21621;SDS011;10973;46.706;12.340;2023-06-05T06:01:52;5.20;;;4.80;;
21621;SDS011;10973;46.706;12.340;2023-06-05T06:04:20;5.13;;;4.63;;
21621;SDS011;10973;46.706;12.340;2023-06-05T06:06:47;6.20;;;4.97;;
21621;SDS011;10973;46.706;12.340;2023-06-05T06:09:15;5.23;;;4.83;;
21621;SDS011;10973;46.706;12.340;2023-06-05T06:11:42;6.20;;;5.23;;
21621;SDS011;10973;46.706;12.340;2023-06-05T06:14:10;5.63;;;5.10;;
21621;SDS011;10973;46.706;12.340;2023-06-05T06:16:37;6.30;;;5.70;;
21621;SDS011;10973;46.706;12.340;2023-06-05T06:19:05;5.63;;;5.13;;
21621;SDS011;10973;46.706;12.340;2023-06-05T06:21:33;7.23;;;5.27;;
21621;SDS011;10973;46.706;12.340;2023-06-05T06:24:00;5.43;;;4.63;;
21621;SDS011;10973;46.706;12.340;2023-06-05T06:26:30;6.03;;;5.43;;
21621;SDS011;10973;46.706;12.340;2023-06-05T06:28:57;5.50;;;5.10;;
21621;SDS011;10973;46.706;12.340;2023-06-05T06:31:24;5.17;;;4.77;;
21621;SDS011;10973;46.706;12.340;2023-06-05T06:33:52;5.07;;;4.67;;
21621;SDS011;10973;46.706;12.340;2023-06-05T06:36:20;4.80;;;4.40;;
21621;SDS011;10973;46.706;12.340;2023-06-05T06:38:48;7.10;;;4.90;;
21621;SDS011;10973;46.706;12.340;2023-06-05T06:41:15;5.20;;;4.50;;
21621;SDS011;10973;46.706;12.340;2023-06-05T06:43:42;4.13;;;3.63;;
21621;SDS011;10973;46.706;12.340;2023-06-05T06:46:10;7.03;;;3.63;;
21621;SDS011;10973;46.706;12.340;2023-06-05T06:48:38;6.07;;;4.20;;
21621;SDS011;10973;46.706;12.340;2023-06-05T06:51:06;4.20;;;3.90;;
21621;SDS011;10973;46.706;12.340;2023-06-05T06:53:33;3.97;;;3.70;;
21621;SDS011;10973;46.706;12.340;2023-06-05T06:56:00;4.33;;;4.03;;
21621;SDS011;10973;46.706;12.340;2023-06-05T06:58:28;3.57;;;3.30;;
21621;SDS011;10973;46.706;12.340;2023-06-05T07:00:55;3.43;;;3.13;;
21621;SDS011;10973;46.706;12.340;2023-06-05T07:03:23;3.00;;;2.80;;
21621;SDS011;10973;46.706;12.340;2023-06-05T07:05:50;3.13;;;2.93;;
21621;SDS011;10973;46.706;12.340;2023-06-05T07:08:18;3.27;;;3.07;;
21621;SDS011;10973;46.706;12.340;2023-06-05T07:10:45;3.47;;;3.17;;
21621;SDS011;10973;46.706;12.340;2023-06-05T07:13:13;3.93;;;2.80;;
21621;SDS011;10973;46.706;12.340;2023-06-05T07:15:40;2.87;;;2.67;;
21621;SDS011;10973;46.706;12.340;2023-06-05T07:18:08;3.00;;;2.60;;
21621;SDS011;10973;46.706;12.340;2023-06-05T07:20:38;3.03;;;2.53;;
21621;SDS011;10973;46.706;12.340;2023-06-05T07:23:05;2.33;;;2.23;;
21621;SDS011;10973;46.706;12.340;2023-06-05T07:25:32;2.50;;;2.40;;
21621;SDS011;10973;46.706;12.340;2023-06-05T07:28:00;2.93;;;2.60;;
21621;SDS011;10973;46.706;12.340;2023-06-05T07:30:27;2.67;;;2.47;;
21621;SDS011;10973;46.706;12.340;2023-06-05T07:32:55;3.07;;;2.87;;
21621;SDS011;10973;46.706;12.340;2023-06-05T07:35:22;2.43;;;2.23;;
21621;SDS011;10973;46.706;12.340;2023-06-05T07:37:50;2.23;;;2.13;;
21621;SDS011;10973;46.706;12.340;2023-06-05T07:40:18;2.20;;;2.10;;
21621;SDS011;10973;46.706;12.340;2023-06-05T07:42:46;1.97;;;1.87;;
21621;SDS011;10973;46.706;12.340;2023-06-05T07:45:13;2.07;;;1.90;;
21621;SDS011;10973;46.706;12.340;2023-06-05T07:47:41;2.20;;;2.10;;
21621;SDS011;10973;46.706;12.340;2023-06-05T07:50:08;2.17;;;2.07;;
21621;SDS011;10973;46.706;12.340;2023-06-05T07:52:36;2.10;;;2.00;;
21621;SDS011;10973;46.706;12.340;2023-06-05T07:55:04;2.53;;;2.40;;
21621;SDS011;10973;46.706;12.340;2023-06-05T07:57:31;2.27;;;2.17;;
21621;SDS011;10973;46.706;12.340;2023-06-05T07:59:59;2.30;;;2.10;;
21621;SDS011;10973;46.706;12.340;2023-06-05T08:02:26;2.20;;;2.10;;
21621;SDS011;10973;46.706;12.340;2023-06-05T08:04:54;2.63;;;2.47;;
21621;SDS011;10973;46.706;12.340;2023-06-05T08:07:21;3.50;;;3.20;;
21621;SDS011;10973;46.706;12.340;2023-06-05T08:09:48;3.27;;;3.07;;
21621;SDS011;10973;46.706;12.340;2023-06-05T08:12:16;2.90;;;2.70;;
21621;SDS011;10973;46.706;12.340;2023-06-05T08:14:43;4.17;;;2.97;;
21621;SDS011;10973;46.706;12.340;2023-06-05T08:17:11;3.93;;;2.80;;
21621;SDS011;10973;46.706;12.340;2023-06-05T08:19:38;3.30;;;3.10;;
21621;SDS011;10973;46.706;12.340;2023-06-05T08:22:06;3.77;;;3.10;;
21621;SDS011;10973;46.706;12.340;2023-06-05T08:24:33;4.10;;;3.70;;
21621;SDS011;10973;46.706;12.340;2023-06-05T08:27:00;3.47;;;3.17;;
21621;SDS011;10973;46.706;12.340;2023-06-05T08:29:28;3.23;;;3.00;;
21621;SDS011;10973;46.706;12.340;2023-06-05T08:31:55;3.50;;;3.30;;
21621;SDS011;10973;46.706;12.340;2023-06-05T08:34:23;3.23;;;2.97;;
21621;SDS011;10973;46.706;12.340;2023-06-05T08:36:50;3.23;;;2.93;;
21621;SDS011;10973;46.706;12.340;2023-06-05T08:39:18;2.60;;;2.50;;
21621;SDS011;10973;46.706;12.340;2023-06-05T08:41:45;2.87;;;2.67;;
21621;SDS011;10973;46.706;12.340;2023-06-05T08:44:18;2.53;;;2.43;;
21621;SDS011;10973;46.706;12.340;2023-06-05T08:46:45;4.90;;;2.37;;
21621;SDS011;10973;46.706;12.340;2023-06-05T08:49:16;2.60;;;2.40;;
21621;SDS011;10973;46.706;12.340;2023-06-05T08:51:51;2.00;;;1.90;;
21621;SDS011;10973;46.706;12.340;2023-06-05T08:54:19;2.30;;;2.10;;
21621;SDS011;10973;46.706;12.340;2023-06-05T08:56:47;1.90;;;1.80;;
21621;SDS011;10973;46.706;12.340;2023-06-05T08:59:15;1.83;;;1.73;;
21621;SDS011;10973;46.706;12.340;2023-06-05T09:01:46;2.03;;;1.90;;
21621;SDS011;10973;46.706;12.340;2023-06-05T09:04:14;2.03;;;1.90;;
21621;SDS011;10973;46.706;12.340;2023-06-05T09:06:45;2.00;;;1.90;;
21621;SDS011;10973;46.706;12.340;2023-06-05T09:09:16;1.70;;;1.70;;
21621;SDS011;10973;46.706;12.340;2023-06-05T09:11:43;1.50;;;1.50;;
21621;SDS011;10973;46.706;12.340;2023-06-05T09:14:10;1.67;;;1.57;;
21621;SDS011;10973;46.706;12.340;2023-06-05T09:16:39;1.80;;;1.70;;
21621;SDS011;10973;46.706;12.340;2023-06-05T09:19:10;1.50;;;1.40;;
21621;SDS011;10973;46.706;12.340;2023-06-05T09:21:38;1.90;;;1.80;;
21621;SDS011;10973;46.706;12.340;2023-06-05T09:24:10;1.90;;;1.80;;
21621;SDS011;10973;46.706;12.340;2023-06-05T09:26:58;1.60;;;1.60;;
21621;SDS011;10973;46.706;12.340;2023-06-05T09:29:36;1.60;;;1.50;;
21621;SDS011;10973;46.706;12.340;2023-06-05T09:32:06;4.17;;;2.10;;
21621;SDS011;10973;46.706;12.340;2023-06-05T09:34:39;1.90;;;1.80;;
21621;SDS011;10973;46.706;12.340;2023-06-05T09:37:08;1.93;;;1.83;;
21621;SDS011;10973;46.706;12.340;2023-06-05T09:39:38;1.67;;;1.67;;
21621;SDS011;10973;46.706;12.340;2023-06-05T09:42:07;2.10;;;2.00;;
21621;SDS011;10973;46.706;12.340;2023-06-05T09:44:35;2.07;;;1.93;;
21621;SDS011;10973;46.706;12.340;2023-06-05T09:47:04;2.60;;;2.40;;
21621;SDS011;10973;46.706;12.340;2023-06-05T09:52:08;4.77;;;3.10;;
21621;SDS011;10973;46.706;12.340;2023-06-05T09:54:42;2.13;;;1.97;;
21621;SDS011;10973;46.706;12.340;2023-06-05T09:57:12;1.97;;;1.87;;
21621;SDS011;10973;46.706;12.340;2023-06-05T09:59:49;4.43;;;2.37;;
21621;SDS011;10973;46.706;12.340;2023-06-05T10:02:20;2.80;;;2.60;;
21621;SDS011;10973;46.706;12.340;2023-06-05T10:04:56;2.97;;;2.57;;
21621;SDS011;10973;46.706;12.340;2023-06-05T10:07:28;6.73;;;4.63;;
21621;SDS011;10973;46.706;12.340;2023-06-05T10:09:57;2.60;;;2.40;;
21621;SDS011;10973;46.706;12.340;2023-06-05T10:12:26;2.20;;;2.10;;
21621;SDS011;10973;46.706;12.340;2023-06-05T10:14:56;2.00;;;1.90;;
21621;SDS011;10973;46.706;12.340;2023-06-05T10:17:24;2.80;;;2.60;;
21621;SDS011;10973;46.706;12.340;2023-06-05T10:19:52;2.70;;;2.50;;
21621;SDS011;10973;46.706;12.340;2023-06-05T10:22:20;2.73;;;2.13;;
21621;SDS011;10973;46.706;12.340;2023-06-05T10:24:51;2.83;;;2.00;;
21621;SDS011;10973;46.706;12.340;2023-06-05T10:27:31;1.70;;;1.60;;
21621;SDS011;10973;46.706;12.340;2023-06-05T10:30:39;2.10;;;2.00;;
21621;SDS011;10973;46.706;12.340;2023-06-05T10:39:24;1.30;;;1.20;;
21621;SDS011;10973;46.706;12.340;2023-06-05T10:41:52;1.40;;;1.40;;
21621;SDS011;10973;46.706;12.340;2023-06-05T10:44:37;1.47;;;1.37;;
21621;SDS011;10973;46.706;12.340;2023-06-05T10:50:25;1.40;;;1.30;;
21621;SDS011;10973;46.706;12.340;2023-06-05T10:52:53;1.27;;;1.27;;
21621;SDS011;10973;46.706;12.340;2023-06-05T10:55:22;1.00;;;1.00;;
21621;SDS011;10973;46.706;12.340;2023-06-05T11:00:31;1.10;;;1.10;;
21621;SDS011;10973;46.706;12.340;2023-06-05T11:02:59;1.00;;;1.00;;
21621;SDS011;10973;46.706;12.340;2023-06-05T11:05:28;1.20;;;1.20;;
21621;SDS011;10973;46.706;12.340;2023-06-05T11:08:29;1.00;;;1.00;;
21621;SDS011;10973;46.706;12.340;2023-06-05T11:11:02;1.37;;;1.07;;
21621;SDS011;10973;46.706;12.340;2023-06-05T11:13:51;1.20;;;1.20;;
21621;SDS011;10973;46.706;12.340;2023-06-05T11:16:29;1.73;;;1.00;;
21621;SDS011;10973;46.706;12.340;2023-06-05T11:19:41;1.10;;;1.10;;
21621;SDS011;10973;46.706;12.340;2023-06-05T11:24:36;2.57;;;2.20;;
21621;SDS011;10973;46.706;12.340;2023-06-05T11:27:05;3.80;;;2.53;;
21621;SDS011;10973;46.706;12.340;2023-06-05T11:29:33;2.17;;;1.50;;
21621;SDS011;10973;46.706;12.340;2023-06-05T11:32:09;1.87;;;1.77;;
21621;SDS011;10973;46.706;12.340;2023-06-05T11:34:38;1.80;;;1.70;;
21621;SDS011;10973;46.706;12.340;2023-06-05T11:37:15;1.30;;;1.30;;
21621;SDS011;10973;46.706;12.340;2023-06-05T11:39:45;1.10;;;1.10;;
21621;SDS011;10973;46.706;12.340;2023-06-05T11:42:20;1.80;;;1.30;;
21621;SDS011;10973;46.706;12.340;2023-06-05T11:44:49;1.90;;;1.70;;
21621;SDS011;10973;46.706;12.340;2023-06-05T11:47:26;1.83;;;1.50;;
21621;SDS011;10973;46.706;12.340;2023-06-05T11:50:09;1.63;;;1.50;;
21621;SDS011;10973;46.706;12.340;2023-06-05T11:52:39;5.33;;;2.10;;
21621;SDS011;10973;46.706;12.340;2023-06-05T11:55:13;3.50;;;2.27;;
21621;SDS011;10973;46.706;12.340;2023-06-05T11:57:45;3.53;;;2.00;;
21621;SDS011;10973;46.706;12.340;2023-06-05T12:00:22;1.10;;;1.10;;
21621;SDS011;10973;46.706;12.340;2023-06-05T12:02:52;1.83;;;1.70;;
21621;SDS011;10973;46.706;12.340;2023-06-05T12:05:19;1.30;;;1.30;;
21621;SDS011;10973;46.706;12.340;2023-06-05T12:07:47;2.00;;;1.80;;
21621;SDS011;10973;46.706;12.340;2023-06-05T12:10:14;1.67;;;1.57;;
21621;SDS011;10973;46.706;12.340;2023-06-05T12:12:51;3.33;;;1.40;;
21621;SDS011;10973;46.706;12.340;2023-06-05T12:15:20;1.30;;;1.30;;
21621;SDS011;10973;46.706;12.340;2023-06-05T12:17:54;0.87;;;0.87;;
21621;SDS011;10973;46.706;12.340;2023-06-05T12:20:23;0.80;;;0.80;;
21621;SDS011;10973;46.706;12.340;2023-06-05T12:22:50;0.90;;;0.90;;
21621;SDS011;10973;46.706;12.340;2023-06-05T12:25:21;1.30;;;1.20;;
21621;SDS011;10973;46.706;12.340;2023-06-05T12:27:49;1.00;;;1.00;;
21621;SDS011;10973;46.706;12.340;2023-06-05T12:30:16;0.90;;;0.90;;
21621;SDS011;10973;46.706;12.340;2023-06-05T12:32:44;0.70;;;0.70;;
21621;SDS011;10973;46.706;12.340;2023-06-05T12:35:22;0.70;;;0.70;;
21621;SDS011;10973;46.706;12.340;2023-06-05T12:37:50;0.80;;;0.80;;
21621;SDS011;10973;46.706;12.340;2023-06-05T12:40:18;0.90;;;0.90;;
21621;SDS011;10973;46.706;12.340;2023-06-05T12:43:01;1.40;;;1.30;;
21621;SDS011;10973;46.706;12.340;2023-06-05T12:45:28;0.90;;;0.90;;
21621;SDS011;10973;46.706;12.340;2023-06-05T12:47:56;1.27;;;0.67;;
21621;SDS011;10973;46.706;12.340;2023-06-05T12:50:23;0.70;;;0.70;;
21621;SDS011;10973;46.706;12.340;2023-06-05T12:52:51;0.60;;;0.60;;
21621;SDS011;10973;46.706;12.340;2023-06-05T12:55:18;0.80;;;0.80;;
21621;SDS011;10973;46.706;12.340;2023-06-05T12:57:45;1.30;;;1.00;;
21621;SDS011;10973;46.706;12.340;2023-06-05T13:00:13;0.70;;;0.70;;
21621;SDS011;10973;46.706;12.340;2023-06-05T13:02:42;0.97;;;0.93;;
21621;SDS011;10973;46.706;12.340;2023-06-05T13:05:14;0.87;;;0.83;;
21621;SDS011;10973;46.706;12.340;2023-06-05T13:07:42;1.17;;;1.00;;
21621;SDS011;10973;46.706;12.340;2023-06-05T13:10:10;0.60;;;0.60;;
21621;SDS011;10973;46.706;12.340;2023-06-05T13:12:38;0.60;;;0.60;;
21621;SDS011;10973;46.706;12.340;2023-06-05T13:15:05;0.70;;;0.70;;
21621;SDS011;10973;46.706;12.340;2023-06-05T13:17:34;1.00;;;1.00;;
21621;SDS011;10973;46.706;12.340;2023-06-05T13:20:06;0.63;;;0.63;;
21621;SDS011;10973;46.706;12.340;2023-06-05T13:22:34;1.13;;;1.10;;
21621;SDS011;10973;46.706;12.340;2023-06-05T13:25:02;1.10;;;1.10;;
21621;SDS011;10973;46.706;12.340;2023-06-05T13:27:32;0.90;;;0.90;;
21621;SDS011;10973;46.706;12.340;2023-06-05T13:30:00;0.83;;;0.83;;
21621;SDS011;10973;46.706;12.340;2023-06-05T13:32:28;1.20;;;1.10;;
21621;SDS011;10973;46.706;12.340;2023-06-05T13:34:55;1.10;;;1.10;;
21621;SDS011;10973;46.706;12.340;2023-06-05T13:37:23;1.27;;;1.17;;
21621;SDS011;10973;46.706;12.340;2023-06-05T13:39:50;1.10;;;1.10;;
21621;SDS011;10973;46.706;12.340;2023-06-05T13:42:18;1.17;;;1.17;;
21621;SDS011;10973;46.706;12.340;2023-06-05T13:44:45;1.07;;;1.07;;
21621;SDS011;10973;46.706;12.340;2023-06-05T13:47:12;1.13;;;1.10;;
21621;SDS011;10973;46.706;12.340;2023-06-05T13:49:40;1.10;;;1.10;;
21621;SDS011;10973;46.706;12.340;2023-06-05T13:52:07;1.00;;;1.00;;
21621;SDS011;10973;46.706;12.340;2023-06-05T13:54:35;1.20;;;1.20;;
21621;SDS011;10973;46.706;12.340;2023-06-05T13:57:02;1.07;;;1.07;;
21621;SDS011;10973;46.706;12.340;2023-06-05T13:59:30;1.10;;;1.10;;
21621;SDS011;10973;46.706;12.340;2023-06-05T14:01:57;1.00;;;1.00;;
21621;SDS011;10973;46.706;12.340;2023-06-05T14:04:25;1.20;;;1.20;;
21621;SDS011;10973;46.706;12.340;2023-06-05T14:06:52;1.40;;;1.40;;
21621;SDS011;10973;46.706;12.340;2023-06-05T14:09:21;1.10;;;1.10;;
21621;SDS011;10973;46.706;12.340;2023-06-05T14:11:51;1.00;;;1.00;;
21621;SDS011;10973;46.706;12.340;2023-06-05T14:14:19;0.80;;;0.80;;
21621;SDS011;10973;46.706;12.340;2023-06-05T14:16:46;1.70;;;1.20;;
21621;SDS011;10973;46.706;12.340;2023-06-05T14:19:14;1.00;;;1.00;;
21621;SDS011;10973;46.706;12.340;2023-06-05T14:21:41;1.77;;;0.90;;
21621;SDS011;10973;46.706;12.340;2023-06-05T14:24:09;0.90;;;0.90;;
21621;SDS011;10973;46.706;12.340;2023-06-05T14:26:37;7.83;;;1.10;;
21621;SDS011;10973;46.706;12.340;2023-06-05T14:29:04;1.00;;;1.00;;
21621;SDS011;10973;46.706;12.340;2023-06-05T14:31:32;0.90;;;0.90;;
21621;SDS011;10973;46.706;12.340;2023-06-05T14:33:59;0.87;;;0.87;;
21621;SDS011;10973;46.706;12.340;2023-06-05T14:36:27;0.90;;;0.90;;
21621;SDS011;10973;46.706;12.340;2023-06-05T14:38:54;0.80;;;0.80;;
21621;SDS011;10973;46.706;12.340;2023-06-05T14:41:23;1.20;;;0.87;;
21621;SDS011;10973;46.706;12.340;2023-06-05T14:43:50;0.90;;;0.90;;
21621;SDS011;10973;46.706;12.340;2023-06-05T14:46:18;3.37;;;1.00;;
21621;SDS011;10973;46.706;12.340;2023-06-05T14:48:45;1.20;;;1.20;;
21621;SDS011;10973;46.706;12.340;2023-06-05T14:51:12;1.50;;;1.50;;
21621;SDS011;10973;46.706;12.340;2023-06-05T14:53:40;1.50;;;1.50;;
21621;SDS011;10973;46.706;12.340;2023-06-05T14:56:08;1.10;;;1.10;;
21621;SDS011;10973;46.706;12.340;2023-06-05T14:58:36;1.10;;;1.10;;
21621;SDS011;10973;46.706;12.340;2023-06-05T15:01:03;1.17;;;1.17;;
21621;SDS011;10973;46.706;12.340;2023-06-05T15:03:31;1.07;;;1.03;;